sensor_id;sensor_type;location;lat;lon;timestamp;pressure;altitude;pressure_sealevel;temperature;humidity
71638;BME280;59485;43.542;-5.676;2023-06-04T00:02:12;101421.91;;;19.71;nan
71638;BME280;59485;43.542;-5.676;2023-06-04T00:04:37;101441.03;;;19.79;nan
71638;BME280;59485;43.542;-5.676;2023-06-04T00:07:03;101434.41;;;19.80;nan
71638;BME280;59485;43.542;-5.676;2023-06-04T00:09:29;101445.53;;;19.80;nan
71638;BME280;59485;43.542;-5.676;2023-06-04T00:11:55;101443.59;;;19.80;nan
71638;BME280;59485;43.542;-5.676;2023-06-04T00:14:21;101438.81;;;19.69;nan
71638;BME280;59485;43.542;-5.676;2023-06-04T00:16:47;101413.97;;;19.56;nan
71638;BME280;59485;43.542;-5.676;2023-06-04T00:19:12;101432.72;;;19.61;nan
71638;BME280;59485;43.542;-5.676;2023-06-04T00:21:38;101442.09;;;19.66;nan
71638;BME280;59485;43.542;-5.676;2023-06-04T00:24:03;101418.78;;;19.49;nan
71638;BME280;59485;43.542;-5.676;2023-06-04T00:26:29;101420.22;;;19.52;nan
71638;BME280;59485;43.542;-5.676;2023-06-04T00:28:55;101437.31;;;19.55;nan
71638;BME280;59485;43.542;-5.676;2023-06-04T00:31:20;101444.13;;;19.59;nan
71638;BME280;59485;43.542;-5.676;2023-06-04T00:33:49;101441.78;;;19.56;nan
71638;BME280;59485;43.542;-5.676;2023-06-04T00:36:15;101419.31;;;19.39;nan
71638;BME280;59485;43.542;-5.676;2023-06-04T00:38:40;101396.53;;;19.31;nan
71638;BME280;59485;43.542;-5.676;2023-06-04T00:41:06;101406.56;;;19.32;nan
71638;BME280;59485;43.542;-5.676;2023-06-04T00:43:31;101412.88;;;19.39;nan
71638;BME280;59485;43.542;-5.676;2023-06-04T00:45:57;101418.22;;;19.40;nan
71638;BME280;59485;43.542;-5.676;2023-06-04T00:48:24;101433.81;;;19.41;nan
71638;BME280;59485;43.542;-5.676;2023-06-04T00:50:53;101404.56;;;19.21;nan
71638;BME280;59485;43.542;-5.676;2023-06-04T00:53:20;101432.19;;;19.34;nan
71638;BME280;59485;43.542;-5.676;2023-06-04T00:55:48;101417.97;;;19.24;nan
71638;BME280;59485;43.542;-5.676;2023-06-04T00:58:13;101417.38;;;19.22;nan
71638;BME280;59485;43.542;-5.676;2023-06-04T01:00:41;101426.94;;;19.26;nan
71638;BME280;59485;43.542;-5.676;2023-06-04T01:03:17;101424.00;;;19.21;nan
71638;BME280;59485;43.542;-5.676;2023-06-04T01:05:51;101432.72;;;19.24;nan
71638;BME280;59485;43.542;-5.676;2023-06-04T01:08:23;101426.63;;;19.16;nan
71638;BME280;59485;43.542;-5.676;2023-06-04T01:10:55;101422.84;;;19.10;nan
71638;BME280;59485;43.542;-5.676;2023-06-04T01:13:21;101435.59;;;19.18;nan
71638;BME280;59485;43.542;-5.676;2023-06-04T01:15:47;101440.16;;;19.12;nan
71638;BME280;59485;43.542;-5.676;2023-06-04T01:18:19;101434.81;;;19.10;nan
71638;BME280;59485;43.542;-5.676;2023-06-04T01:21:00;101414.19;;;19.00;nan
71638;BME280;59485;43.542;-5.676;2023-06-04T01:23:51;101433.09;;;19.09;nan
71638;BME280;59485;43.542;-5.676;2023-06-04T01:26:27;101426.91;;;19.07;nan
71638;BME280;59485;43.542;-5.676;2023-06-04T01:28:55;101426.91;;;19.07;nan
71638;BME280;59485;43.542;-5.676;2023-06-04T01:31:22;101410.78;;;18.98;nan
71638;BME280;59485;43.542;-5.676;2023-06-04T01:33:55;101419.75;;;19.00;nan
71638;BME280;59485;43.542;-5.676;2023-06-04T01:36:24;101414.63;;;18.97;nan
71638;BME280;59485;43.542;-5.676;2023-06-04T01:38:50;101415.75;;;18.96;nan
71638;BME280;59485;43.542;-5.676;2023-06-04T01:41:16;101409.34;;;18.95;nan
71638;BME280;59485;43.542;-5.676;2023-06-04T01:43:42;101423.16;;;19.02;nan
71638;BME280;59485;43.542;-5.676;2023-06-04T01:46:08;101424.09;;;18.96;nan
71638;BME280;59485;43.542;-5.676;2023-06-04T01:48:33;101399.19;;;18.83;nan
71638;BME280;59485;43.542;-5.676;2023-06-04T01:50:59;101425.53;;;18.98;nan
71638;BME280;59485;43.542;-5.676;2023-06-04T01:53:25;101428.31;;;18.98;nan
71638;BME280;59485;43.542;-5.676;2023-06-04T01:55:51;101390.09;;;18.76;nan
71638;BME280;59485;43.542;-5.676;2023-06-04T01:58:18;101399.66;;;18.80;nan
71638;BME280;59485;43.542;-5.676;2023-06-04T02:00:50;101426.59;;;18.97;nan
71638;BME280;59485;43.542;-5.676;2023-06-04T02:03:18;101417.28;;;18.92;nan
71638;BME280;59485;43.542;-5.676;2023-06-04T02:05:44;101414.34;;;18.87;nan
71638;BME280;59485;43.542;-5.676;2023-06-04T02:08:14;101423.06;;;18.90;nan
71638;BME280;59485;43.542;-5.676;2023-06-04T02:10:45;101435.19;;;18.96;nan
71638;BME280;59485;43.542;-5.676;2023-06-04T02:13:12;101428.38;;;18.92;nan
71638;BME280;59485;43.542;-5.676;2023-06-04T02:15:37;101395.25;;;18.72;nan
71638;BME280;59485;43.542;-5.676;2023-06-04T02:18:18;101414.78;;;18.84;nan
71638;BME280;59485;43.542;-5.676;2023-06-04T02:20:47;101415.88;;;18.83;nan
71638;BME280;59485;43.542;-5.676;2023-06-04T02:23:14;101430.50;;;18.96;nan
71638;BME280;59485;43.542;-5.676;2023-06-04T02:25:40;101425.75;;;18.97;nan
71638;BME280;59485;43.542;-5.676;2023-06-04T02:28:06;101415.97;;;18.94;nan
71638;BME280;59485;43.542;-5.676;2023-06-04T02:30:32;101406.16;;;18.92;nan
71638;BME280;59485;43.542;-5.676;2023-06-04T02:32:57;101380.28;;;18.73;nan
71638;BME280;59485;43.542;-5.676;2023-06-04T02:35:27;101398.91;;;18.91;nan
71638;BME280;59485;43.542;-5.676;2023-06-04T02:37:52;101412.34;;;18.94;nan
71638;BME280;59485;43.542;-5.676;2023-06-04T02:40:18;101401.03;;;18.89;nan
71638;BME280;59485;43.542;-5.676;2023-06-04T02:42:43;101396.97;;;18.91;nan
71638;BME280;59485;43.542;-5.676;2023-06-04T02:45:10;101407.56;;;19.01;nan
71638;BME280;59485;43.542;-5.676;2023-06-04T02:47:36;101402.22;;;18.99;nan
71638;BME280;59485;43.542;-5.676;2023-06-04T02:50:01;101408.63;;;19.00;nan
71638;BME280;59485;43.542;-5.676;2023-06-04T02:52:28;101407.69;;;19.06;nan
71638;BME280;59485;43.542;-5.676;2023-06-04T02:54:55;101400.06;;;19.01;nan
71638;BME280;59485;43.542;-5.676;2023-06-04T02:57:21;101379.38;;;18.97;nan
71638;BME280;59485;43.542;-5.676;2023-06-04T02:59:46;101388.81;;;18.96;nan
71638;BME280;59485;43.542;-5.676;2023-06-04T03:02:12;101395.81;;;18.99;nan
71638;BME280;59485;43.542;-5.676;2023-06-04T03:04:41;101391.31;;;18.98;nan
71638;BME280;59485;43.542;-5.676;2023-06-04T03:07:08;101387.69;;;18.97;nan
71638;BME280;59485;43.542;-5.676;2023-06-04T03:09:36;101371.75;;;18.93;nan
71638;BME280;59485;43.542;-5.676;2023-06-04T03:12:02;101376.84;;;18.96;nan
71638;BME280;59485;43.542;-5.676;2023-06-04T03:14:29;101388.81;;;18.96;nan
71638;BME280;59485;43.542;-5.676;2023-06-04T03:17:02;101383.47;;;18.95;nan
71638;BME280;59485;43.542;-5.676;2023-06-04T03:19:37;101360.72;;;18.86;nan
71638;BME280;59485;43.542;-5.676;2023-06-04T03:22:03;101363.09;;;18.83;nan
71638;BME280;59485;43.542;-5.676;2023-06-04T03:24:35;101363.84;;;18.90;nan
71638;BME280;59485;43.542;-5.676;2023-06-04T03:27:04;101373.66;;;18.92;nan
71638;BME280;59485;43.542;-5.676;2023-06-04T03:29:31;101366.19;;;18.93;nan
71638;BME280;59485;43.542;-5.676;2023-06-04T03:31:57;101356.59;;;18.89;nan
71638;BME280;59485;43.542;-5.676;2023-06-04T03:34:23;101375.16;;;18.95;nan
71638;BME280;59485;43.542;-5.676;2023-06-04T03:36:52;101357.75;;;18.81;nan
71638;BME280;59485;43.542;-5.676;2023-06-04T03:39:18;101379.06;;;18.87;nan
71638;BME280;59485;43.542;-5.676;2023-06-04T03:41:43;101366.50;;;18.85;nan
71638;BME280;59485;43.542;-5.676;2023-06-04T03:44:09;101359.47;;;18.82;nan
71638;BME280;59485;43.542;-5.676;2023-06-04T03:46:34;101363.47;;;18.86;nan
71638;BME280;59485;43.542;-5.676;2023-06-04T03:49:01;101375.19;;;18.88;nan
71638;BME280;59485;43.542;-5.676;2023-06-04T03:51:27;101349.34;;;18.69;nan
71638;BME280;59485;43.542;-5.676;2023-06-04T03:53:52;101335.28;;;18.64;nan
71638;BME280;59485;43.542;-5.676;2023-06-04T03:56:18;101378.44;;;18.85;nan
71638;BME280;59485;43.542;-5.676;2023-06-04T03:58:43;101341.06;;;18.63;nan
71638;BME280;59485;43.542;-5.676;2023-06-04T04:01:09;101381.69;;;18.82;nan
71638;BME280;59485;43.542;-5.676;2023-06-04T04:03:36;101369.34;;;18.78;nan
71638;BME280;59485;43.542;-5.676;2023-06-04T04:06:02;101391.81;;;18.95;nan
71638;BME280;59485;43.542;-5.676;2023-06-04T04:08:27;101366.50;;;18.85;nan
71638;BME280;59485;43.542;-5.676;2023-06-04T04:10:57;101384.47;;;19.00;nan
71638;BME280;59485;43.542;-5.676;2023-06-04T04:13:23;101368.56;;;18.89;nan
71638;BME280;59485;43.542;-5.676;2023-06-04T04:15:48;101379.84;;;18.94;nan
71638;BME280;59485;43.542;-5.676;2023-06-04T04:18:18;101382.13;;;18.97;nan
71638;BME280;59485;43.542;-5.676;2023-06-04T04:20:46;101371.75;;;18.93;nan
71638;BME280;59485;43.542;-5.676;2023-06-04T04:23:12;101350.34;;;18.75;nan
71638;BME280;59485;43.542;-5.676;2023-06-04T04:25:37;101340.16;;;18.69;nan
71638;BME280;59485;43.542;-5.676;2023-06-04T04:28:04;101358.38;;;18.83;nan
71638;BME280;59485;43.542;-5.676;2023-06-04T04:30:36;101386.09;;;18.90;nan
71638;BME280;59485;43.542;-5.676;2023-06-04T04:33:02;101388.94;;;18.83;nan
71638;BME280;59485;43.542;-5.676;2023-06-04T04:35:30;101378.13;;;18.75;nan
71638;BME280;59485;43.542;-5.676;2023-06-04T04:38:01;101375.34;;;18.75;nan
71638;BME280;59485;43.542;-5.676;2023-06-04T04:40:30;101388.09;;;18.83;nan
71638;BME280;59485;43.542;-5.676;2023-06-04T04:42:56;101392.78;;;18.82;nan
71638;BME280;59485;43.542;-5.676;2023-06-04T04:45:22;101376.44;;;18.74;nan
71638;BME280;59485;43.542;-5.676;2023-06-04T04:47:49;101377.69;;;18.78;nan
71638;BME280;59485;43.542;-5.676;2023-06-04T04:50:16;101360.59;;;18.74;nan
71638;BME280;59485;43.542;-5.676;2023-06-04T04:52:42;101387.22;;;18.82;nan
71638;BME280;59485;43.542;-5.676;2023-06-04T04:55:08;101391.50;;;18.85;nan
71638;BME280;59485;43.542;-5.676;2023-06-04T04:57:34;101373.44;;;18.76;nan
71638;BME280;59485;43.542;-5.676;2023-06-04T04:59:59;101368.72;;;18.76;nan
71638;BME280;59485;43.542;-5.676;2023-06-04T05:02:25;101388.25;;;18.88;nan
71638;BME280;59485;43.542;-5.676;2023-06-04T05:04:50;101376.13;;;18.82;nan
71638;BME280;59485;43.542;-5.676;2023-06-04T05:07:16;101363.63;;;18.73;nan
71638;BME280;59485;43.542;-5.676;2023-06-04T05:09:41;101371.66;;;18.81;nan
71638;BME280;59485;43.542;-5.676;2023-06-04T05:12:07;101362.31;;;18.76;nan
71638;BME280;59485;43.542;-5.676;2023-06-04T05:14:33;101380.94;;;18.93;nan
71638;BME280;59485;43.542;-5.676;2023-06-04T05:17:01;101375.19;;;18.88;nan
71638;BME280;59485;43.542;-5.676;2023-06-04T05:19:28;101369.09;;;18.80;nan
71638;BME280;59485;43.542;-5.676;2023-06-04T05:21:54;101358.13;;;18.66;nan
71638;BME280;59485;43.542;-5.676;2023-06-04T05:24:19;101358.75;;;18.68;nan
71638;BME280;59485;43.542;-5.676;2023-06-04T05:26:45;101386.31;;;18.88;nan
71638;BME280;59485;43.542;-5.676;2023-06-04T05:29:13;101373.50;;;18.69;nan
71638;BME280;59485;43.542;-5.676;2023-06-04T05:31:39;101381.53;;;18.77;nan
71638;BME280;59485;43.542;-5.676;2023-06-04T05:34:05;101395.13;;;18.85;nan
71638;BME280;59485;43.542;-5.676;2023-06-04T05:36:30;101389.16;;;18.82;nan
71638;BME280;59485;43.542;-5.676;2023-06-04T05:38:56;101393.34;;;18.91;nan
71638;BME280;59485;43.542;-5.676;2023-06-04T05:41:28;101389.09;;;18.88;nan
71638;BME280;59485;43.542;-5.676;2023-06-04T05:43:54;101399.66;;;18.98;nan
71638;BME280;59485;43.542;-5.676;2023-06-04T05:46:20;101380.31;;;18.91;nan
71638;BME280;59485;43.542;-5.676;2023-06-04T05:48:46;101385.78;;;18.98;nan
71638;BME280;59485;43.542;-5.676;2023-06-04T05:51:14;101377.91;;;18.95;nan
71638;BME280;59485;43.542;-5.676;2023-06-04T05:53:40;101380.47;;;18.96;nan
71638;BME280;59485;43.542;-5.676;2023-06-04T05:56:06;101384.03;;;19.03;nan
71638;BME280;59485;43.542;-5.676;2023-06-04T05:58:34;101383.16;;;19.03;nan
71638;BME280;59485;43.542;-5.676;2023-06-04T06:01:00;101365.19;;;19.05;nan
71638;BME280;59485;43.542;-5.676;2023-06-04T06:03:25;101383.25;;;19.15;nan
71638;BME280;59485;43.542;-5.676;2023-06-04T06:05:52;101359.00;;;19.03;nan
71638;BME280;59485;43.542;-5.676;2023-06-04T06:08:20;101360.22;;;19.07;nan
71638;BME280;59485;43.542;-5.676;2023-06-04T06:10:45;101364.88;;;19.14;nan
71638;BME280;59485;43.542;-5.676;2023-06-04T06:13:11;101350.59;;;19.10;nan
71638;BME280;59485;43.542;-5.676;2023-06-04T06:15:36;101361.03;;;19.15;nan
71638;BME280;59485;43.542;-5.676;2023-06-04T06:18:02;101381.28;;;19.33;nan
71638;BME280;59485;43.542;-5.676;2023-06-04T06:20:27;101383.84;;;19.35;nan
71638;BME280;59485;43.542;-5.676;2023-06-04T06:22:54;101358.34;;;19.38;nan
71638;BME280;59485;43.542;-5.676;2023-06-04T06:25:20;101352.94;;;19.43;nan
71638;BME280;59485;43.542;-5.676;2023-06-04T06:27:45;101362.84;;;19.57;nan
71638;BME280;59485;43.542;-5.676;2023-06-04T06:30:11;101366.47;;;19.58;nan
71638;BME280;59485;43.542;-5.676;2023-06-04T06:32:37;101340.59;;;19.39;nan
71638;BME280;59485;43.542;-5.676;2023-06-04T06:35:03;101364.88;;;19.50;nan
71638;BME280;59485;43.542;-5.676;2023-06-04T06:37:29;101365.13;;;19.60;nan
71638;BME280;59485;43.542;-5.676;2023-06-04T06:39:55;101378.97;;;19.67;nan
71638;BME280;59485;43.542;-5.676;2023-06-04T06:42:20;101373.22;;;19.62;nan
71638;BME280;59485;43.542;-5.676;2023-06-04T06:44:46;101347.47;;;19.36;nan
71638;BME280;59485;43.542;-5.676;2023-06-04T06:47:11;101379.97;;;19.54;nan
71638;BME280;59485;43.542;-5.676;2023-06-04T06:49:40;101352.56;;;19.39;nan
71638;BME280;59485;43.542;-5.676;2023-06-04T06:52:06;101381.81;;;19.42;nan
71638;BME280;59485;43.542;-5.676;2023-06-04T06:54:34;101364.25;;;19.30;nan
71638;BME280;59485;43.542;-5.676;2023-06-04T06:57:00;101344.16;;;19.28;nan
71638;BME280;59485;43.542;-5.676;2023-06-04T06:59:27;101386.63;;;19.53;nan
71638;BME280;59485;43.542;-5.676;2023-06-04T07:01:52;101374.19;;;19.56;nan
71638;BME280;59485;43.542;-5.676;2023-06-04T07:04:18;101392.94;;;19.60;nan
71638;BME280;59485;43.542;-5.676;2023-06-04T07:06:43;101387.25;;;19.55;nan
71638;BME280;59485;43.542;-5.676;2023-06-04T07:09:09;101390.66;;;19.57;nan
71638;BME280;59485;43.542;-5.676;2023-06-04T07:11:34;101384.13;;;19.63;nan
71638;BME280;59485;43.542;-5.676;2023-06-04T07:14:01;101385.84;;;19.64;nan
71638;BME280;59485;43.542;-5.676;2023-06-04T07:16:29;101380.72;;;19.61;nan
71638;BME280;59485;43.542;-5.676;2023-06-04T07:18:54;101385.72;;;19.71;nan
71638;BME280;59485;43.542;-5.676;2023-06-04T07:21:20;101344.38;;;19.26;nan
71638;BME280;59485;43.542;-5.676;2023-06-04T07:23:47;101386.53;;;19.60;nan
71638;BME280;59485;43.542;-5.676;2023-06-04T07:26:15;101355.97;;;19.41;nan
71638;BME280;59485;43.542;-5.676;2023-06-04T07:28:41;101372.88;;;19.58;nan
71638;BME280;59485;43.542;-5.676;2023-06-04T07:31:07;101374.94;;;19.63;nan
71638;BME280;59485;43.542;-5.676;2023-06-04T07:33:33;101395.03;;;19.65;nan
71638;BME280;59485;43.542;-5.676;2023-06-04T07:35:58;101390.09;;;19.67;nan
71638;BME280;59485;43.542;-5.676;2023-06-04T07:38:24;101384.53;;;19.67;nan
71638;BME280;59485;43.542;-5.676;2023-06-04T07:40:50;101389.53;;;19.88;nan
71638;BME280;59485;43.542;-5.676;2023-06-04T07:43:15;101382.50;;;19.74;nan
71638;BME280;59485;43.542;-5.676;2023-06-04T07:45:41;101385.41;;;19.79;nan
71638;BME280;59485;43.542;-5.676;2023-06-04T07:48:09;101375.00;;;19.74;nan
71638;BME280;59485;43.542;-5.676;2023-06-04T07:50:36;101358.34;;;19.56;nan
71638;BME280;59485;43.542;-5.676;2023-06-04T07:53:01;101383.75;;;19.90;nan
71638;BME280;59485;43.542;-5.676;2023-06-04T07:55:27;101337.81;;;19.69;nan
71638;BME280;59485;43.542;-5.676;2023-06-04T07:57:52;101391.25;;;19.89;nan
71638;BME280;59485;43.542;-5.676;2023-06-04T08:00:18;101374.94;;;19.93;nan
71638;BME280;59485;43.542;-5.676;2023-06-04T08:02:43;101376.63;;;19.94;nan
71638;BME280;59485;43.542;-5.676;2023-06-04T08:05:09;101386.56;;;20.01;nan
71638;BME280;59485;43.542;-5.676;2023-06-04T08:07:35;101356.06;;;19.95;nan
71638;BME280;59485;43.542;-5.676;2023-06-04T08:10:00;101376.06;;;20.15;nan
71638;BME280;59485;43.542;-5.676;2023-06-04T08:12:26;101364.66;;;20.05;nan
71638;BME280;59485;43.542;-5.676;2023-06-04T08:14:51;101347.72;;;19.95;nan
71638;BME280;59485;43.542;-5.676;2023-06-04T08:17:20;101384.06;;;20.11;nan
71638;BME280;59485;43.542;-5.676;2023-06-04T08:19:45;101376.56;;;20.23;nan
71638;BME280;59485;43.542;-5.676;2023-06-04T08:22:11;101376.94;;;20.27;nan
71638;BME280;59485;43.542;-5.676;2023-06-04T08:24:36;101396.50;;;20.39;nan
71638;BME280;59485;43.542;-5.676;2023-06-04T08:27:02;101370.22;;;20.05;nan
71638;BME280;59485;43.542;-5.676;2023-06-04T08:29:28;101372.66;;;20.01;nan
71638;BME280;59485;43.542;-5.676;2023-06-04T08:31:53;101393.63;;;20.15;nan
71638;BME280;59485;43.542;-5.676;2023-06-04T08:34:19;101383.91;;;19.95;nan
71638;BME280;59485;43.542;-5.676;2023-06-04T08:36:45;101411.75;;;20.06;nan
71638;BME280;59485;43.542;-5.676;2023-06-04T08:39:11;101397.47;;;19.73;nan
71638;BME280;59485;43.542;-5.676;2023-06-04T08:41:48;101421.63;;;19.91;nan
71638;BME280;59485;43.542;-5.676;2023-06-04T08:44:16;101399.09;;;19.80;nan
71638;BME280;59485;43.542;-5.676;2023-06-04T08:46:43;101413.03;;;19.92;nan
71638;BME280;59485;43.542;-5.676;2023-06-04T08:49:12;101414.53;;;19.95;nan
71638;BME280;59485;43.542;-5.676;2023-06-04T08:51:38;101415.22;;;19.90;nan
71638;BME280;59485;43.542;-5.676;2023-06-04T08:54:08;101386.63;;;19.83;nan
71638;BME280;59485;43.542;-5.676;2023-06-04T08:56:35;101409.19;;;19.93;nan
71638;BME280;59485;43.542;-5.676;2023-06-04T08:59:07;101402.88;;;19.86;nan
71638;BME280;59485;43.542;-5.676;2023-06-04T09:01:33;101413.75;;;19.88;nan
71638;BME280;59485;43.542;-5.676;2023-06-04T09:04:03;101378.19;;;19.60;nan
71638;BME280;59485;43.542;-5.676;2023-06-04T09:06:29;101414.56;;;19.76;nan
71638;BME280;59485;43.542;-5.676;2023-06-04T09:08:58;101418.56;;;19.80;nan
71638;BME280;59485;43.542;-5.676;2023-06-04T09:11:38;101415.53;;;19.82;nan
71638;BME280;59485;43.542;-5.676;2023-06-04T09:14:08;101438.09;;;19.92;nan
71638;BME280;59485;43.542;-5.676;2023-06-04T09:16:53;101434.31;;;19.86;nan
71638;BME280;59485;43.542;-5.676;2023-06-04T09:19:20;101430.44;;;19.88;nan
71638;BME280;59485;43.542;-5.676;2023-06-04T09:21:57;101431.28;;;19.88;nan
71638;BME280;59485;43.542;-5.676;2023-06-04T09:24:25;101428.16;;;19.84;nan
71638;BME280;59485;43.542;-5.676;2023-06-04T09:27:09;101442.47;;;20.00;nan
71638;BME280;59485;43.542;-5.676;2023-06-04T09:29:35;101445.59;;;19.92;nan
71638;BME280;59485;43.542;-5.676;2023-06-04T09:32:01;101444.50;;;19.93;nan
71638;BME280;59485;43.542;-5.676;2023-06-04T09:34:30;101442.88;;;20.03;nan
71638;BME280;59485;43.542;-5.676;2023-06-04T09:36:58;101448.31;;;20.10;nan
71638;BME280;59485;43.542;-5.676;2023-06-04T09:39:24;101447.84;;;20.13;nan
71638;BME280;59485;43.542;-5.676;2023-06-04T09:42:02;101441.91;;;20.09;nan
71638;BME280;59485;43.542;-5.676;2023-06-04T09:44:31;101442.88;;;20.03;nan
71638;BME280;59485;43.542;-5.676;2023-06-04T09:46:57;101443.44;;;20.05;nan
71638;BME280;59485;43.542;-5.676;2023-06-04T09:49:23;101454.97;;;20.09;nan
71638;BME280;59485;43.542;-5.676;2023-06-04T09:51:49;101447.41;;;19.98;nan
71638;BME280;59485;43.542;-5.676;2023-06-04T09:54:15;101426.34;;;19.90;nan
71638;BME280;59485;43.542;-5.676;2023-06-04T09:56:41;101414.19;;;19.73;nan
71638;BME280;59485;43.542;-5.676;2023-06-04T09:59:09;101445.31;;;20.11;nan
71638;BME280;59485;43.542;-5.676;2023-06-04T10:01:39;101442.88;;;20.03;nan
71638;BME280;59485;43.542;-5.676;2023-06-04T10:04:07;101443.84;;;20.09;nan
71638;BME280;59485;43.542;-5.676;2023-06-04T10:06:34;101444.28;;;19.94;nan
71638;BME280;59485;43.542;-5.676;2023-06-04T10:09:04;101449.34;;;19.97;nan
71638;BME280;59485;43.542;-5.676;2023-06-04T10:11:34;101406.56;;;19.80;nan
71638;BME280;59485;43.542;-5.676;2023-06-04T10:14:03;101457.56;;;19.92;nan
71638;BME280;59485;43.542;-5.676;2023-06-04T10:16:31;101422.91;;;19.76;nan
71638;BME280;59485;43.542;-5.676;2023-06-04T10:18:58;101428.84;;;19.80;nan
71638;BME280;59485;43.542;-5.676;2023-06-04T10:21:26;101464.28;;;20.03;nan
71638;BME280;59485;43.542;-5.676;2023-06-04T10:23:52;101454.22;;;20.02;nan
71638;BME280;59485;43.542;-5.676;2023-06-04T10:26:17;101434.91;;;19.89;nan
71638;BME280;59485;43.542;-5.676;2023-06-04T10:28:43;101459.78;;;20.02;nan
71638;BME280;59485;43.542;-5.676;2023-06-04T10:31:10;101465.16;;;20.15;nan
71638;BME280;59485;43.542;-5.676;2023-06-04T10:33:36;101459.75;;;20.20;nan
71638;BME280;59485;43.542;-5.676;2023-06-04T10:36:22;101438.50;;;20.37;nan
71638;BME280;59485;43.542;-5.676;2023-06-04T10:38:55;101446.97;;;20.42;nan
71638;BME280;59485;43.542;-5.676;2023-06-04T10:41:21;101448.56;;;20.38;nan
71638;BME280;59485;43.542;-5.676;2023-06-04T10:43:52;101451.34;;;20.50;nan
71638;BME280;59485;43.542;-5.676;2023-06-04T10:46:25;101425.66;;;20.36;nan
71638;BME280;59485;43.542;-5.676;2023-06-04T10:48:54;101441.31;;;20.49;nan
71638;BME280;59485;43.542;-5.676;2023-06-04T10:51:33;101452.66;;;20.36;nan
71638;BME280;59485;43.542;-5.676;2023-06-04T10:54:02;101450.31;;;20.33;nan
71638;BME280;59485;43.542;-5.676;2023-06-04T10:56:28;101453.31;;;20.19;nan
71638;BME280;59485;43.542;-5.676;2023-06-04T10:58:55;101453.09;;;20.21;nan
71638;BME280;59485;43.542;-5.676;2023-06-04T11:01:25;101445.47;;;20.28;nan
71638;BME280;59485;43.542;-5.676;2023-06-04T11:03:50;101436.13;;;20.22;nan
71638;BME280;59485;43.542;-5.676;2023-06-04T11:06:16;101446.44;;;20.22;nan
71638;BME280;59485;43.542;-5.676;2023-06-04T11:08:42;101453.22;;;20.26;nan
71638;BME280;59485;43.542;-5.676;2023-06-04T11:11:12;101456.47;;;20.23;nan
71638;BME280;59485;43.542;-5.676;2023-06-04T11:13:39;101438.59;;;20.31;nan
71638;BME280;59485;43.542;-5.676;2023-06-04T11:16:17;101429.81;;;20.45;nan
71638;BME280;59485;43.542;-5.676;2023-06-04T11:18:43;101427.88;;;20.46;nan
71638;BME280;59485;43.542;-5.676;2023-06-04T11:21:10;101428.94;;;20.45;nan
71638;BME280;59485;43.542;-5.676;2023-06-04T11:23:40;101444.34;;;20.47;nan
71638;BME280;59485;43.542;-5.676;2023-06-04T11:26:05;101435.38;;;20.15;nan
71638;BME280;59485;43.542;-5.676;2023-06-04T11:28:31;101424.28;;;20.27;nan
71638;BME280;59485;43.542;-5.676;2023-06-04T11:31:03;101428.25;;;20.61;nan
71638;BME280;59485;43.542;-5.676;2023-06-04T11:33:44;101432.84;;;20.55;nan
71638;BME280;59485;43.542;-5.676;2023-06-04T11:36:10;101429.94;;;20.62;nan
71638;BME280;59485;43.542;-5.676;2023-06-04T11:38:54;101429.34;;;20.72;nan
71638;BME280;59485;43.542;-5.676;2023-06-04T11:41:20;101403.31;;;20.66;nan
71638;BME280;59485;43.542;-5.676;2023-06-04T11:43:49;101420.00;;;20.78;nan
71638;BME280;59485;43.542;-5.676;2023-06-04T11:46:14;101408.50;;;20.63;nan
71638;BME280;59485;43.542;-5.676;2023-06-04T11:48:40;101391.41;;;20.59;nan
71638;BME280;59485;43.542;-5.676;2023-06-04T11:51:08;101416.38;;;20.89;nan
71638;BME280;59485;43.542;-5.676;2023-06-04T11:53:36;101416.63;;;21.11;nan
71638;BME280;59485;43.542;-5.676;2023-06-04T11:56:02;101396.25;;;20.98;nan
71638;BME280;59485;43.542;-5.676;2023-06-04T11:58:28;101427.63;;;20.94;nan
71638;BME280;59485;43.542;-5.676;2023-06-04T12:00:55;101421.25;;;20.93;nan
71638;BME280;59485;43.542;-5.676;2023-06-04T12:03:33;101425.47;;;20.96;nan
71638;BME280;59485;43.542;-5.676;2023-06-04T12:05:59;101421.47;;;20.80;nan
71638;BME280;59485;43.542;-5.676;2023-06-04T12:08:53;101405.59;;;20.69;nan
71638;BME280;59485;43.542;-5.676;2023-06-04T12:11:32;101420.97;;;21.07;nan
71638;BME280;59485;43.542;-5.676;2023-06-04T12:14:03;101414.53;;;20.94;nan
71638;BME280;59485;43.542;-5.676;2023-06-04T12:16:30;101430.69;;;20.92;nan
71638;BME280;59485;43.542;-5.676;2023-06-04T12:19:10;101436.03;;;21.17;nan
71638;BME280;59485;43.542;-5.676;2023-06-04T12:21:37;101432.72;;;21.09;nan
71638;BME280;59485;43.542;-5.676;2023-06-04T12:24:13;101434.44;;;20.98;nan
71638;BME280;59485;43.542;-5.676;2023-06-04T12:26:41;101426.41;;;21.13;nan
71638;BME280;59485;43.542;-5.676;2023-06-04T12:29:11;101427.75;;;20.87;nan
71638;BME280;59485;43.542;-5.676;2023-06-04T12:31:38;101422.69;;;20.84;nan
71638;BME280;59485;43.542;-5.676;2023-06-04T12:34:04;101427.41;;;20.84;nan
71638;BME280;59485;43.542;-5.676;2023-06-04T12:36:30;101414.81;;;20.93;nan
71638;BME280;59485;43.542;-5.676;2023-06-04T12:38:59;101387.06;;;20.75;nan
71638;BME280;59485;43.542;-5.676;2023-06-04T12:41:26;101416.00;;;20.97;nan
71638;BME280;59485;43.542;-5.676;2023-06-04T12:43:52;101408.81;;;21.13;nan
71638;BME280;59485;43.542;-5.676;2023-06-04T12:46:18;101378.81;;;20.91;nan
71638;BME280;59485;43.542;-5.676;2023-06-04T12:48:43;101391.28;;;21.01;nan
71638;BME280;59485;43.542;-5.676;2023-06-04T12:51:09;101385.91;;;21.34;nan
71638;BME280;59485;43.542;-5.676;2023-06-04T12:53:41;101406.56;;;21.10;nan
71638;BME280;59485;43.542;-5.676;2023-06-04T12:56:07;101380.00;;;20.95;nan
71638;BME280;59485;43.542;-5.676;2023-06-04T12:58:33;101403.59;;;21.40;nan
71638;BME280;59485;43.542;-5.676;2023-06-04T13:00:58;101395.97;;;21.47;nan
71638;BME280;59485;43.542;-5.676;2023-06-04T13:03:24;101373.81;;;21.17;nan